createdAt,value
2018-08-30T00:02:18.668Z,84.65
2018-08-30T00:04:49.929Z,83.91
2018-08-30T00:07:18.127Z,83.94
2018-08-30T00:09:46.471Z,84.57
2018-08-30T00:12:14.746Z,84.22
2018-08-30T00:14:43.105Z,84.45
2018-08-30T00:17:11.630Z,84.11
2018-08-30T00:19:39.886Z,84.47
2018-08-30T00:22:08.657Z,85.14
2018-08-30T00:24:37.071Z,84.91
2018-08-30T00:27:05.597Z,84.87
2018-08-30T00:29:34.281Z,84.77
2018-08-30T00:32:02.877Z,85.46
2018-08-30T00:34:31.353Z,85.39
2018-08-30T00:36:59.659Z,85.59
2018-08-30T00:39:27.894Z,85.58
2018-08-30T00:41:56.179Z,85.50
2018-08-30T00:44:24.410Z,85.58
2018-08-30T00:46:52.624Z,85.29
2018-08-30T00:49:20.903Z,84.83
2018-08-30T00:51:49.197Z,84.94
2018-08-30T00:54:17.383Z,85.70
2018-08-30T00:56:45.647Z,85.31
2018-08-30T00:59:13.804Z,85.29
2018-08-30T01:01:42.129Z,84.84
2018-08-30T01:04:10.445Z,84.52
2018-08-30T01:06:38.833Z,84.77
2018-08-30T01:09:08.050Z,84.85
2018-08-30T01:11:36.518Z,84.76
2018-08-30T01:14:04.745Z,84.79
2018-08-30T01:16:33.242Z,84.75
2018-08-30T01:19:01.368Z,84.11
2018-08-30T01:21:31.693Z,84.23
2018-08-30T01:23:59.990Z,85.15
2018-08-30T01:26:28.057Z,83.76
2018-08-30T01:28:56.424Z,83.87
2018-08-30T01:31:24.781Z,83.89
2018-08-30T01:33:53.024Z,83.73
2018-08-30T01:36:21.341Z,83.72
2018-08-30T01:38:49.687Z,84.03
2018-08-30T01:41:17.864Z,84.13
2018-08-30T01:43:46.114Z,84.29
2018-08-30T01:46:14.269Z,83.48
2018-08-30T01:48:42.659Z,84.64
2018-08-30T01:51:10.790Z,84.11
2018-08-30T01:53:39.076Z,83.69
2018-08-30T01:56:07.374Z,84.68
2018-08-30T01:58:35.552Z,84.25
2018-08-30T02:01:03.744Z,84.88
2018-08-30T02:03:31.799Z,85.44
2018-08-30T02:05:59.877Z,85.58
2018-08-30T02:08:28.061Z,85.96
2018-08-30T02:10:56.453Z,85.36
2018-08-30T02:13:24.935Z,85.67
2018-08-30T02:15:53.381Z,85.94
2018-08-30T02:18:21.517Z,86.15
2018-08-30T02:20:49.934Z,86.18
2018-08-30T02:23:18.437Z,86.12
2018-08-30T02:25:47.173Z,86.07
2018-08-30T02:28:15.704Z,86.37
2018-08-30T02:30:44.145Z,86.76
2018-08-30T02:33:12.660Z,86.42
2018-08-30T02:35:41.702Z,85.88
2018-08-30T02:38:09.656Z,86.78
2018-08-30T02:40:38.428Z,85.80
2018-08-30T02:43:06.986Z,86.40
2018-08-30T02:45:35.525Z,86.79
2018-08-30T02:48:03.989Z,85.77
2018-08-30T02:50:32.108Z,86.15
2018-08-30T02:53:00.440Z,86.73
2018-08-30T02:55:28.626Z,86.58
2018-08-30T02:57:56.865Z,87.13
2018-08-30T03:00:25.053Z,86.94
2018-08-30T03:02:53.325Z,86.77
2018-08-30T03:05:21.617Z,86.87
2018-08-30T03:07:50.068Z,86.79
2018-08-30T03:10:18.827Z,86.56
2018-08-30T03:12:47.825Z,86.91
2018-08-30T03:15:16.846Z,87.28
2018-08-30T03:17:45.461Z,87.39
2018-08-30T03:20:14.822Z,87.60
2018-08-30T03:22:43.553Z,87.24
2018-08-30T03:25:12.092Z,86.85
2018-08-30T03:27:40.546Z,86.72
2018-08-30T03:30:09.189Z,86.76
2018-08-30T03:32:37.388Z,86.81
2018-08-30T03:35:05.892Z,86.84
2018-08-30T03:37:34.043Z,86.88
2018-08-30T03:40:02.424Z,86.25
2018-08-30T03:42:30.615Z,87.39
2018-08-30T03:44:58.772Z,86.78
2018-08-30T03:47:26.927Z,87.43
2018-08-30T03:49:55.184Z,87.74
2018-08-30T03:52:23.425Z,87.39
2018-08-30T03:54:51.683Z,87.61
2018-08-30T03:57:19.791Z,87.36
2018-08-30T03:59:47.976Z,87.82
2018-08-30T04:02:16.219Z,87.05
2018-08-30T04:04:44.543Z,87.21
2018-08-30T04:07:12.739Z,87.09
2018-08-30T04:09:41.018Z,87.72
2018-08-30T04:12:09.237Z,87.67
2018-08-30T04:14:37.326Z,87.12
2018-08-30T04:17:05.677Z,87.56
2018-08-30T04:19:33.840Z,86.95
2018-08-30T04:22:02.017Z,87.22
2018-08-30T04:24:30.232Z,87.20
2018-08-30T04:26:58.471Z,87.00
2018-08-30T04:29:27.669Z,87.30
2018-08-30T04:31:55.888Z,87.14
2018-08-30T04:34:24.026Z,86.54
2018-08-30T04:36:52.193Z,86.69
2018-08-30T04:39:20.329Z,86.47
2018-08-30T04:41:49.133Z,87.02
2018-08-30T04:44:18.145Z,86.58
2018-08-30T04:46:47.358Z,86.09
2018-08-30T04:49:16.021Z,86.26
2018-08-30T04:51:45.048Z,86.44
2018-08-30T04:54:13.158Z,85.69
2018-08-30T04:56:41.458Z,85.96
2018-08-30T04:59:09.783Z,86.30
2018-08-30T05:01:38.141Z,86.38
2018-08-30T05:04:06.544Z,86.06
2018-08-30T05:06:35.185Z,85.48
2018-08-30T05:09:03.686Z,85.80
2018-08-30T05:11:31.945Z,86.19
2018-08-30T05:14:00.226Z,86.31
2018-08-30T05:16:28.449Z,85.67
2018-08-30T05:18:56.559Z,86.13
2018-08-30T05:21:24.693Z,86.09
2018-08-30T05:23:53.059Z,85.92
2018-08-30T05:26:21.465Z,85.67
2018-08-30T05:28:49.735Z,86.24
2018-08-30T05:31:17.975Z,85.77
2018-08-30T05:33:46.287Z,86.10
2018-08-30T05:36:14.625Z,85.54
2018-08-30T05:38:42.985Z,85.66
2018-08-30T05:41:11.368Z,85.26
2018-08-30T05:43:39.755Z,84.45
2018-08-30T05:46:08.201Z,84.65
2018-08-30T05:48:36.410Z,84.66
2018-08-30T05:51:04.662Z,84.26
2018-08-30T05:53:32.945Z,85.11
2018-08-30T05:56:09.045Z,85.26
2018-08-30T05:58:37.135Z,85.21
2018-08-30T06:01:05.330Z,85.11
2018-08-30T06:03:33.488Z,84.95
2018-08-30T06:06:07.675Z,85.00
2018-08-30T06:08:36.034Z,84.76
2018-08-30T06:11:05.005Z,84.74
2018-08-30T06:13:33.345Z,84.20
2018-08-30T06:16:16.043Z,84.68
2018-08-30T06:18:44.193Z,84.20
2018-08-30T06:21:12.595Z,84.21
2018-08-30T06:23:42.899Z,83.99
2018-08-30T06:26:11.659Z,83.82
2018-08-30T06:28:39.919Z,83.45
2018-08-30T06:31:24.721Z,83.49
2018-08-30T06:33:53.117Z,83.08
2018-08-30T06:36:21.504Z,82.63
2018-08-30T06:38:50.072Z,82.36
2018-08-30T06:44:04.952Z,82.09
2018-08-30T06:46:34.507Z,81.75
2018-08-30T06:49:03.563Z,81.26
2018-08-30T06:51:32.001Z,81.85
2018-08-30T06:54:00.454Z,81.05
2018-08-30T06:56:28.834Z,81.59
2018-08-30T06:58:57.066Z,81.23
2018-08-30T07:01:25.613Z,80.00
2018-08-30T07:03:55.030Z,79.67
2018-08-30T07:06:23.496Z,79.36
2018-08-30T07:08:51.859Z,79.96
2018-08-30T07:11:20.265Z,78.85
2018-08-30T07:13:48.745Z,78.87
2018-08-30T07:16:17.755Z,79.22
2018-08-30T07:18:46.209Z,78.65
2018-08-30T07:21:14.479Z,77.96
2018-08-30T07:23:42.905Z,78.24
2018-08-30T07:26:11.175Z,78.59
2018-08-30T07:28:39.955Z,78.18
2018-08-30T07:31:08.185Z,78.87
2018-08-30T07:33:36.769Z,78.01
2018-08-30T07:36:05.203Z,78.92
2018-08-30T07:38:33.561Z,79.50
2018-08-30T07:41:02.501Z,80.00
2018-08-30T07:43:31.261Z,80.88
2018-08-30T07:45:59.566Z,82.64
2018-08-30T07:48:27.797Z,82.32
2018-08-30T07:50:56.021Z,81.75
2018-08-30T07:53:24.467Z,82.20
2018-08-30T07:55:52.985Z,82.33
2018-08-30T07:58:21.325Z,81.14
2018-08-30T08:00:49.804Z,82.32
2018-08-30T08:03:19.444Z,80.97
2018-08-30T08:05:47.800Z,80.11
2018-08-30T08:08:16.308Z,80.22
2018-08-30T08:10:44.745Z,79.72
2018-08-30T08:13:13.223Z,78.64
2018-08-30T08:15:41.335Z,78.14
2018-08-30T08:18:09.574Z,77.25
2018-08-30T08:20:37.969Z,76.61
2018-08-30T08:23:06.139Z,76.17
2018-08-30T08:25:34.220Z,76.86
2018-08-30T08:28:02.436Z,77.19
2018-08-30T08:30:30.821Z,77.98
2018-08-30T08:33:01.108Z,76.94
2018-08-30T08:35:29.329Z,76.87
2018-08-30T08:37:57.742Z,76.96
2018-08-30T08:40:36.168Z,77.46
2018-08-30T08:43:04.388Z,76.13
2018-08-30T08:45:32.920Z,76.80
2018-08-30T08:48:01.225Z,76.03
2018-08-30T08:50:29.417Z,75.34
2018-08-30T08:52:57.586Z,75.84
2018-08-30T08:55:26.146Z,75.77
2018-08-30T08:57:54.361Z,73.88
2018-08-30T09:00:23.535Z,74.03
2018-08-30T09:02:51.815Z,73.35
2018-08-30T09:05:20.120Z,73.85
2018-08-30T09:07:48.363Z,73.49
2018-08-30T09:10:16.894Z,73.43
2018-08-30T09:12:45.294Z,73.47
2018-08-30T09:15:13.634Z,73.08
2018-08-30T09:17:42.005Z,70.89
2018-08-30T10:14:10.689Z,61.00
2018-08-30T10:16:39.050Z,60.97
2018-08-30T10:19:31.487Z,61.42
2018-08-30T10:21:59.605Z,63.05
2018-08-30T10:24:28.465Z,63.37
2018-08-30T10:29:50.047Z,62.18
2018-08-30T10:32:58.665Z,63.02
2018-08-30T10:35:26.670Z,62.12
2018-08-30T10:37:54.907Z,62.88
2018-08-30T10:40:23.430Z,62.24
2018-08-30T10:42:51.801Z,60.76
2018-08-30T10:45:21.517Z,61.43
2018-08-30T10:47:49.646Z,61.20
2018-08-30T10:50:21.137Z,60.07
2018-08-30T10:52:49.156Z,61.02
2018-08-30T10:55:21.964Z,60.51
2018-08-30T10:57:49.935Z,60.74
2018-08-30T11:00:18.364Z,61.94
2018-08-30T11:02:46.397Z,59.85
2018-08-30T11:05:14.513Z,57.50
2018-08-30T11:07:42.814Z,55.52
2018-08-30T11:10:11.303Z,55.04
2018-08-30T11:12:40.412Z,55.55
2018-08-30T11:15:08.573Z,55.09
2018-08-30T11:17:36.612Z,56.29
2018-08-30T11:20:04.878Z,54.94
2018-08-30T11:22:33.616Z,54.52
2018-08-30T11:25:01.959Z,55.11
2018-08-30T11:27:30.831Z,57.29
2018-08-30T11:29:58.791Z,57.55
2018-08-30T11:32:26.837Z,56.55
2018-08-30T11:34:54.794Z,56.32
2018-08-30T11:37:22.879Z,55.92
2018-08-30T11:39:50.839Z,55.00
2018-08-30T11:42:19.092Z,55.56
2018-08-30T12:17:47.227Z,53.35
2018-08-30T12:26:01.469Z,53.62
2018-08-30T12:28:29.791Z,53.70
2018-08-30T12:30:58.228Z,53.33
2018-08-30T12:36:19.516Z,52.48
2018-08-30T12:38:48.542Z,52.55
2018-08-30T12:41:25.485Z,52.61
2018-08-30T12:43:55.130Z,52.02
2018-08-30T12:46:23.144Z,53.17
2018-08-30T12:48:51.082Z,52.61
2018-08-30T13:08:33.377Z,54.78
2018-08-30T13:11:13.405Z,54.95
2018-08-30T15:53:41.015Z,66.98
2018-08-30T16:03:31.798Z,69.24
2018-08-30T16:09:24.401Z,71.27
2018-08-30T16:11:52.576Z,73.71
2018-08-30T16:20:08.190Z,76.07
2018-08-30T16:29:16.022Z,75.34
2018-08-30T16:32:50.406Z,75.17
2018-08-30T16:39:25.762Z,77.80
2018-08-30T16:47:53.296Z,78.50
2018-08-30T16:50:36.096Z,77.77
2018-08-30T17:04:55.166Z,77.18
2018-08-30T17:07:26.450Z,77.46
2018-08-30T17:10:00.071Z,77.62
2018-08-30T17:12:30.303Z,76.65
2018-08-30T17:42:04.604Z,72.22
2018-08-30T17:44:33.128Z,71.46
2018-08-30T17:47:02.155Z,71.63
2018-08-30T17:49:30.488Z,71.22
2018-08-30T17:51:59.236Z,70.57
2018-08-30T17:54:27.807Z,70.36
2018-08-30T17:56:56.636Z,70.56
2018-08-30T17:59:25.210Z,70.47
2018-08-30T18:01:54.055Z,70.05
2018-08-30T18:07:29.521Z,70.11
2018-08-30T18:09:58.008Z,70.07
2018-08-30T18:12:31.615Z,69.75
2018-08-30T18:15:16.696Z,69.69
2018-08-30T18:20:39.145Z,69.56
2018-08-30T18:23:12.864Z,69.89
2018-08-30T18:25:41.744Z,70.07
2018-08-30T18:28:10.325Z,70.77
2018-08-30T18:30:38.942Z,70.67
2018-08-30T18:36:17.376Z,71.19
2018-08-30T18:38:52.159Z,71.29
2018-08-30T20:30:01.003Z,73.29
2018-08-30T20:32:29.981Z,73.40
2018-08-30T20:40:42.835Z,73.32
2018-08-30T20:43:12.295Z,73.48
2018-08-30T21:00:10.750Z,74.10
2018-08-30T21:08:31.417Z,75.96
2018-08-30T21:35:13.900Z,79.06
2018-08-30T21:37:42.242Z,79.06
2018-08-30T21:46:53.099Z,79.52
2018-08-30T21:49:31.099Z,79.89
2018-08-30T21:52:07.419Z,80.67
2018-08-30T21:54:52.139Z,80.05
2018-08-30T22:00:12.901Z,78.90
2018-08-30T22:02:41.021Z,80.89
2018-08-30T22:05:09.209Z,81.04
2018-08-30T22:07:37.364Z,80.17
2018-08-30T22:10:05.745Z,80.41
2018-08-30T22:12:33.827Z,81.29
2018-08-30T22:15:01.825Z,81.23
2018-08-30T22:17:29.887Z,82.33
2018-08-30T22:19:57.910Z,81.74
2018-08-30T22:22:25.965Z,82.34
2018-08-30T22:24:54.030Z,82.56
2018-08-30T22:34:15.005Z,82.71
2018-08-30T22:36:43.103Z,82.83
2018-08-30T22:39:12.174Z,83.15
2018-08-30T22:47:45.579Z,83.19
2018-08-30T22:50:13.361Z,83.65
2018-08-30T22:55:44.440Z,84.00
2018-08-30T22:58:12.623Z,84.12
2018-08-30T23:00:40.658Z,83.88
2018-08-30T23:03:08.796Z,83.59
2018-08-30T23:05:37.116Z,83.32
2018-08-30T23:08:05.496Z,83.95
2018-08-30T23:10:33.776Z,83.29
2018-08-30T23:13:01.939Z,83.58
2018-08-30T23:15:30.221Z,83.15
2018-08-30T23:17:58.491Z,82.64
2018-08-30T23:20:26.829Z,82.84
2018-08-30T23:22:54.826Z,83.46
2018-08-30T23:25:23.080Z,83.86
2018-08-30T23:27:51.251Z,83.34
2018-08-30T23:30:19.462Z,83.74
2018-08-30T23:32:47.504Z,84.34
2018-08-30T23:35:15.831Z,84.58
2018-08-30T23:37:43.951Z,84.62
2018-08-30T23:40:12.074Z,84.35
2018-08-30T23:42:40.104Z,84.37
2018-08-30T23:45:08.572Z,84.22
2018-08-30T23:47:36.559Z,84.58
2018-08-30T23:50:04.850Z,84.84
2018-08-30T23:52:32.917Z,85.16
2018-08-30T23:55:00.939Z,84.60
2018-08-30T23:57:28.979Z,84.54
